Leonard, ND (58052)

11:33 AM CST on February 14, 2016 (GMT -0600)
Casselton, ND | | Change Station
CLOSE
Current Station
Personal Weather Station
Location: Casselton, ND
Elevation: 935 ft
Nearby Weather Stations

Elev 935 ft 46.90 °N, 97.21 °W | Updated 20 seconds ago

Overcast
Overcast
15.8 °F
Feels Like -1 °F
N
18.3
Wind Variable Wind from South
Gusts 19.9 mph

Today
High -- | Low -- °F
--% Chance of Precip.
Yesterday
High -- | Low -- °F
Precip. -- in
Pressure 29.82 in
Visibility 1.5 miles
Clouds Scattered Clouds 1100 ft
Overcast 2100 ft
Windchill -1 °F
Dew Point -11 °F
Humidity 29%
Rainfall 0.00 in
Snow Depth Not available.
7:35 AM 5:51 PM
Waxing Crescent, 43% visible
SPECI KFAR 141725Z 16019G26KT 1 1/2SM -SN SCT011 OVC021 M09/M12 A2982 RMK AO2 PK WND 17026/1723 P0000 T10891117
Pressure 29.82 in
Visibility 1.5 miles
Clouds Scattered Clouds 1100 ft
Overcast 2100 ft
Windchill -1 °F
Dew Point -11 °F
Humidity 29%
Rainfall 0.00 in
Snow Depth Not available.
7:35 AM 5:51 PM
Waxing Crescent, 43% visible
SPECI KFAR 141725Z 16019G26KT 1 1/2SM -SN SCT011 OVC021 M09/M12 A2982 RMK AO2 PK WND 17026/1723 P0000 T10891117

10-Day Weather Forecast

Almanac

Astronomy

Feb. 14, 2016 Rise Set
Actual Time
Civil Twilight
Nautical Twilight
Astronomical Twilight
Moon
Length of Visible Light
Length of Day
Tomorrow will be .
, % of the Moon is Illuminated

Today's Extremes

State Highs State Lows

Community

WunderPhotos

Upload Photos

1,892,859 photos uploaded!

WunderBlog® & News

Nearby

Air Quality

  Air Quality AQ Index Pollutant
Not available.

Snow Depth

Station Depth Elevation

Earthquake Activity

City Distance Mag. Time & Date
Minimum magnitude displayed is 2.5.

Coastal Water Temperatures

Place Temperature

Stations

Nearby Weather Stations

Station Location Temp. Windchill Dew Point Humidity Wind Precip. Elev Updated Type
                   

Watches & Warnings

There are currently no watches in effect.